Time;durP1;ratioP1;P1;durP2;ratioP2;P2;SDS_P1;SDS_P2;PMS_P1;PMS_P2;Temp;Humidity;BMP_temperature;BMP_pressure;BME280_temperature;BME280_humidity;BME280_pressure;Samples;Min_cycle;Max_cycle;Signal;HPM_P1;HPM_P2
2023/12/09 00:01:24;;;;;;;29.08;16.85;;;7.20;99.90;;;;;;4878108;28;94795;-32
2023/12/09 00:03:50;;;;;;;37.55;19.80;;;7.20;99.90;;;;;;4879033;28;93631;-34
2023/12/09 00:06:17;;;;;;;38.38;18.25;;;7.20;99.90;;;;;;4877866;28;94601;-31
2023/12/09 00:08:43;;;;;;;41.55;16.95;;;7.20;99.90;;;;;;4878578;28;94032;-33
2023/12/09 00:11:09;;;;;;;44.67;19.95;;;7.20;99.90;;;;;;4878753;28;94154;-34
2023/12/09 00:13:35;;;;;;;42.88;16.60;;;7.20;99.90;;;;;;4878841;28;94625;-31
2023/12/09 00:16:00;;;;;;;34.25;17.38;;;7.20;99.90;;;;;;4877471;28;95593;-33
2023/12/09 00:18:26;;;;;;;47.47;18.08;;;7.30;99.90;;;;;;4878252;28;96479;-32
2023/12/09 00:20:52;;;;;;;48.33;20.20;;;7.20;99.90;;;;;;4878033;28;93795;-34
2023/12/09 00:23:17;;;;;;;40.17;18.90;;;7.20;99.90;;;;;;4878673;28;93930;-32
2023/12/09 00:25:43;;;;;;;49.35;20.35;;;7.30;99.90;;;;;;4877966;28;94946;-30
2023/12/09 00:28:08;;;;;;;41.17;15.50;;;7.30;99.90;;;;;;4878504;28;95168;-30
2023/12/09 00:30:34;;;;;;;42.85;18.77;;;7.30;99.90;;;;;;4877891;28;94694;-31
2023/12/09 00:33:00;;;;;;;38.08;18.15;;;7.30;99.90;;;;;;4878634;28;91913;-32
2023/12/09 00:35:26;;;;;;;54.33;18.60;;;7.30;99.90;;;;;;4877724;28;96140;-32
2023/12/09 00:37:51;;;;;;;40.83;19.80;;;7.30;99.90;;;;;;4877833;28;95017;-33
2023/12/09 00:40:18;;;;;;;57.10;20.42;;;7.30;99.90;;;;;;4878400;28;95008;-33
2023/12/09 00:42:43;;;;;;;51.17;20.30;;;7.30;99.90;;;;;;4868573;28;94794;-32
2023/12/09 00:45:09;;;;;;;41.60;18.38;;;7.30;99.90;;;;;;4881616;28;94234;-30
2023/12/09 00:47:34;;;;;;;49.60;18.60;;;7.30;99.90;;;;;;4881243;28;93957;-30
2023/12/09 00:50:01;;;;;;;42.38;18.27;;;7.30;99.90;;;;;;4881977;28;92222;-33
2023/12/09 00:52:26;;;;;;;42.75;20.90;;;7.30;99.90;;;;;;4882208;28;92190;-34
2023/12/09 00:54:52;;;;;;;50.42;20.40;;;7.30;99.90;;;;;;4881292;28;95801;-31
2023/12/09 00:57:19;;;;;;;41.63;19.30;;;7.30;99.90;;;;;;4881180;28;94680;-33
2023/12/09 00:59:44;;;;;;;47.63;21.23;;;7.30;99.90;;;;;;4881673;28;95045;-33
2023/12/09 01:02:10;;;;;;;37.38;18.10;;;7.30;99.90;;;;;;4880398;28;93517;-33
2023/12/09 01:04:35;;;;;;;33.25;17.88;;;7.30;99.90;;;;;;4880939;28;95766;-29
2023/12/09 01:07:01;;;;;;;29.38;15.48;;;7.30;99.90;;;;;;4880515;28;95197;-31
2023/12/09 01:09:26;;;;;;;46.22;17.27;;;7.30;99.90;;;;;;4882016;28;94298;-32
2023/12/09 01:11:52;;;;;;;62.15;18.10;;;7.30;99.90;;;;;;4881570;28;94193;-31
2023/12/09 01:14:18;;;;;;;48.78;19.58;;;7.30;99.90;;;;;;4880619;28;93390;-33
2023/12/09 01:16:44;;;;;;;44.58;18.17;;;7.30;99.90;;;;;;4881160;28;94627;-31
2023/12/09 01:19:09;;;;;;;37.03;16.02;;;7.30;99.90;;;;;;4880856;28;94575;-31
2023/12/09 01:21:35;;;;;;;51.60;17.15;;;7.30;99.90;;;;;;4881770;28;92642;-33
2023/12/09 01:24:01;;;;;;;26.02;15.30;;;7.30;99.90;;;;;;4881304;28;94846;-32
2023/12/09 01:26:26;;;;;;;54.15;18.83;;;7.30;99.90;;;;;;4881221;28;95123;-34
2023/12/09 01:28:52;;;;;;;35.33;19.63;;;7.30;99.90;;;;;;4880414;28;94485;-32
2023/12/09 01:31:17;;;;;;;35.38;16.98;;;7.30;99.90;;;;;;4880543;28;92733;-31
2023/12/09 01:33:43;;;;;;;23.00;14.52;;;7.30;99.90;;;;;;4880644;28;96154;-32
2023/12/09 01:36:08;;;;;;;35.20;14.43;;;7.30;99.90;;;;;;4880132;28;95052;-32
2023/12/09 01:38:35;;;;;;;36.90;16.45;;;7.40;99.90;;;;;;4881196;28;93866;-32
2023/12/09 01:41:00;;;;;;;30.25;13.93;;;7.30;99.90;;;;;;4880694;28;94537;-32
2023/12/09 01:43:26;;;;;;;38.05;17.85;;;7.40;99.90;;;;;;4881271;28;94978;-33
2023/12/09 01:45:55;;;;;;;34.80;16.35;;;7.40;99.90;;;;;;4881093;28;94538;-31
2023/12/09 01:48:22;;;;;;;32.05;15.93;;;7.40;99.90;;;;;;4880854;28;94261;-32
2023/12/09 01:50:48;;;;;;;40.45;16.65;;;7.40;99.90;;;;;;4880204;28;93652;-33
2023/12/09 01:53:13;;;;;;;46.97;17.40;;;7.40;99.90;;;;;;4879127;28;95780;-32
2023/12/09 01:55:41;;;;;;;56.15;15.52;;;7.50;99.90;;;;;;4880194;28;94196;-33
2023/12/09 01:58:08;;;;;;;29.52;14.88;;;7.50;99.90;;;;;;4880481;28;94887;-33
2023/12/09 02:00:33;;;;;;;35.40;17.25;;;7.50;99.90;;;;;;4880673;28;94081;-32
2023/12/09 02:02:59;;;;;;;41.55;17.92;;;7.50;99.90;;;;;;4877852;28;94146;-30
2023/12/09 02:05:27;;;;;;;34.40;15.55;;;7.50;99.90;;;;;;4880939;28;94347;-35
2023/12/09 02:07:52;;;;;;;32.20;16.05;;;7.50;99.90;;;;;;4881265;28;93054;-35
2023/12/09 02:10:19;;;;;;;31.83;15.70;;;7.50;99.90;;;;;;4880611;28;93151;-32
2023/12/09 02:12:56;;;;;;;31.73;15.35;;;7.50;99.90;;;;;;4879862;28;94448;-32
2023/12/09 02:15:26;;;;;;;29.95;15.40;;;7.50;99.90;;;;;;4881156;28;94695;-31
2023/12/09 02:18:03;;;;;;;46.53;17.13;;;7.50;99.90;;;;;;4880095;28;95509;-31
2023/12/09 02:20:29;;;;;;;27.20;15.18;;;7.50;99.90;;;;;;4881051;28;92123;-33
2023/12/09 02:23:13;;;;;;;36.42;14.82;;;7.50;99.90;;;;;;4879800;28;95027;-32
2023/12/09 02:25:40;;;;;;;34.03;14.30;;;7.50;99.90;;;;;;4880113;28;94866;-31
2023/12/09 02:28:19;;;;;;;26.77;13.57;;;7.50;99.90;;;;;;4880270;28;93344;-30
2023/12/09 02:30:59;;;;;;;30.65;14.27;;;7.50;99.90;;;;;;4880155;28;94234;-33
2023/12/09 02:33:26;;;;;;;24.58;13.80;;;7.50;99.90;;;;;;4880475;28;94618;-30
2023/12/09 02:35:53;;;;;;;30.80;14.32;;;7.50;99.90;;;;;;4879968;28;93844;-33
2023/12/09 02:38:20;;;;;;;;;;;7.50;99.90;;;;;;4881700;28;92205;-31
2023/12/09 02:40:46;;;;;;;30.50;13.90;;;7.60;99.90;;;;;;4882194;28;93301;-31
2023/12/09 02:43:13;;;;;;;33.92;14.80;;;7.50;99.90;;;;;;4878789;28;97160;-30
2023/12/09 02:45:39;;;;;;;34.25;15.80;;;7.60;99.90;;;;;;4879217;28;95551;-34
2023/12/09 02:48:05;;;;;;;32.38;15.20;;;7.50;99.90;;;;;;4880368;28;94914;-30
2023/12/09 02:50:31;;;;;;;34.10;15.82;;;7.60;99.90;;;;;;4879628;28;93579;-34
2023/12/09 02:52:56;;;;;;;33.75;15.93;;;7.60;99.90;;;;;;4879818;28;94368;-31
2023/12/09 02:55:22;;;;;;;32.38;14.55;;;7.60;99.90;;;;;;4879910;28;95237;-33
2023/12/09 02:57:48;;;;;;;27.90;12.82;;;7.60;99.90;;;;;;4880217;28;92549;-34
2023/12/09 03:00:13;;;;;;;27.58;13.85;;;7.60;99.90;;;;;;4879885;28;92567;-31
2023/12/09 03:02:39;;;;;;;30.55;15.00;;;7.60;99.90;;;;;;4879211;28;95227;-31
2023/12/09 03:05:05;;;;;;;36.30;14.80;;;7.60;99.90;;;;;;4879303;28;95408;-32
2023/12/09 03:07:31;;;;;;;39.28;13.05;;;7.50;99.90;;;;;;4878810;28;94391;-31
2023/12/09 03:09:56;;;;;;;33.08;12.38;;;7.60;99.90;;;;;;4879467;28;92173;-31
2023/12/09 03:12:22;;;;;;;63.08;15.88;;;7.50;99.90;;;;;;4879632;28;95264;-31
2023/12/09 03:14:47;;;;;;;22.52;13.85;;;7.50;99.90;;;;;;4879264;28;94574;-31
2023/12/09 03:17:13;;;;;;;38.63;15.27;;;7.60;99.90;;;;;;4879283;28;93648;-34
2023/12/09 03:19:39;;;;;;;31.73;13.43;;;7.60;99.90;;;;;;4878803;28;92665;-34
2023/12/09 03:22:04;;;;;;;24.73;13.80;;;7.60;99.90;;;;;;4879313;28;94505;-32
2023/12/09 03:24:30;;;;;;;32.60;13.35;;;7.50;99.90;;;;;;4879668;28;94648;-33
2023/12/09 03:26:56;;;;;;;25.05;13.73;;;7.50;99.90;;;;;;4879170;28;93254;-31
2023/12/09 03:29:22;;;;;;;33.92;13.07;;;7.50;99.90;;;;;;4879661;28;93608;-30
2023/12/09 03:31:48;;;;;;;25.80;12.40;;;7.50;99.90;;;;;;4878168;28;95681;-31
2023/12/09 03:34:15;;;;;;;29.95;12.15;;;7.50;99.90;;;;;;4878811;28;94404;-32
2023/12/09 03:36:40;;;;;;;28.45;11.27;;;7.50;99.90;;;;;;4879380;28;94551;-32
2023/12/09 03:39:07;;;;;;;26.38;13.63;;;7.50;99.90;;;;;;4878954;28;93745;-31
2023/12/09 03:41:33;;;;;;;29.02;12.65;;;7.50;99.90;;;;;;4879131;28;96145;-30
2023/12/09 03:43:59;;;;;;;17.92;12.13;;;7.50;99.90;;;;;;4878921;28;94737;-30
2023/12/09 03:46:25;;;;;;;37.47;14.93;;;7.50;99.90;;;;;;4879651;28;92673;-31
2023/12/09 03:48:50;;;;;;;25.83;12.88;;;7.50;99.90;;;;;;4879168;28;93946;-33
2023/12/09 03:51:16;;;;;;;26.15;13.02;;;7.50;99.90;;;;;;4878135;28;94890;-32
2023/12/09 03:53:42;;;;;;;23.92;11.10;;;7.50;99.90;;;;;;4879022;28;94291;-32
2023/12/09 03:56:08;;;;;;;28.85;14.65;;;7.50;99.90;;;;;;4878789;28;94842;-33
2023/12/09 03:58:34;;;;;;;26.48;12.52;;;7.50;99.90;;;;;;4879006;28;93902;-31
2023/12/09 04:01:00;;;;;;;18.75;12.02;;;7.50;99.90;;;;;;4879042;28;95032;-31
2023/12/09 04:03:27;;;;;;;26.10;12.35;;;7.50;99.90;;;;;;4878218;28;94575;-31
2023/12/09 04:05:53;;;;;;;23.70;13.25;;;7.50;99.90;;;;;;4878881;28;93784;-34
2023/12/09 04:08:19;;;;;;;24.98;12.27;;;7.50;99.90;;;;;;4878920;28;92455;-31
2023/12/09 04:10:44;;;;;;;32.88;13.00;;;7.50;99.90;;;;;;4878927;28;94887;-30
2023/12/09 04:13:10;;;;;;;28.75;12.02;;;7.50;99.90;;;;;;4878899;28;94336;-33
2023/12/09 04:15:38;;;;;;;23.58;13.70;;;7.50;99.90;;;;;;4878941;28;94500;-33
2023/12/09 04:18:04;;;;;;;21.33;10.93;;;7.50;99.90;;;;;;4883616;28;92750;-31
2023/12/09 04:20:30;;;;;;;23.48;12.25;;;7.50;99.90;;;;;;4884955;28;96085;-30
2023/12/09 04:22:55;;;;;;;26.67;12.82;;;7.40;99.90;;;;;;4882944;28;97420;-33
2023/12/09 04:25:21;;;;;;;23.10;11.88;;;7.50;99.90;;;;;;4885820;28;93039;-32
2023/12/09 04:27:47;;;;;;;22.00;10.93;;;7.50;99.90;;;;;;4884719;28;93798;-34
2023/12/09 04:30:13;;;;;;;29.65;11.75;;;7.40;99.90;;;;;;4884264;28;94792;-31
2023/12/09 04:32:39;;;;;;;17.77;9.85;;;7.50;99.90;;;;;;4884600;28;94201;-32
2023/12/09 04:35:06;;;;;;;32.03;11.82;;;7.40;99.90;;;;;;4885566;28;92521;-32
2023/12/09 04:37:31;;;;;;;19.85;10.68;;;7.50;99.90;;;;;;4884820;28;91400;-32
2023/12/09 04:39:57;;;;;;;24.25;11.82;;;7.50;99.90;;;;;;4884653;28;96477;-33
2023/12/09 04:42:22;;;;;;;19.98;11.65;;;7.50;99.90;;;;;;4884201;28;94665;-32
2023/12/09 04:44:48;;;;;;;25.95;13.57;;;7.40;99.90;;;;;;4884860;28;95096;-32
2023/12/09 04:47:13;;;;;;;23.60;12.57;;;7.40;99.90;;;;;;4884313;28;93201;-30
2023/12/09 04:49:39;;;;;;;25.38;11.05;;;7.50;99.90;;;;;;4884775;28;95838;-34
2023/12/09 04:52:05;;;;;;;29.83;11.85;;;7.50;99.90;;;;;;4883641;28;94662;-34
2023/12/09 04:54:30;;;;;;;16.80;10.45;;;7.50;99.90;;;;;;4884794;28;94241;-32
2023/12/09 04:56:56;;;;;;;24.08;11.73;;;7.40;99.90;;;;;;4883787;28;93613;-29
2023/12/09 04:59:22;;;;;;;34.03;13.57;;;7.40;99.90;;;;;;4884380;28;94830;-31
2023/12/09 05:01:48;;;;;;;15.25;10.60;;;7.40;99.90;;;;;;4884739;28;94885;-32
2023/12/09 05:04:14;;;;;;;21.85;9.07;;;7.40;99.90;;;;;;4884290;28;93602;-31
2023/12/09 05:06:40;;;;;;;29.90;11.88;;;7.40;99.90;;;;;;4884119;28;92865;-32
2023/12/09 05:09:05;;;;;;;25.05;11.10;;;7.40;99.90;;;;;;4877863;28;96755;-31
2023/12/09 05:11:34;;;;;;;29.50;11.25;;;7.40;99.90;;;;;;4882666;28;95444;-31
2023/12/09 05:13:59;;;;;;;22.40;10.70;;;7.40;99.90;;;;;;4885363;28;94517;-31
2023/12/09 05:16:25;;;;;;;21.42;11.70;;;7.30;99.90;;;;;;4884522;28;93227;-30
2023/12/09 05:18:52;;;;;;;24.35;11.02;;;7.30;99.90;;;;;;4883983;28;94318;-30
2023/12/09 05:21:17;;;;;;;26.05;12.85;;;7.40;99.90;;;;;;4883223;28;94629;-31
2023/12/09 05:23:43;;;;;;;31.40;11.45;;;7.40;99.90;;;;;;4884135;28;93762;-32
2023/12/09 05:26:09;;;;;;;21.90;11.52;;;7.30;99.90;;;;;;4884507;28;91341;-32
2023/12/09 05:28:35;;;;;;;25.77;12.57;;;7.30;99.90;;;;;;4882008;28;97086;-30
2023/12/09 05:31:01;;;;;;;29.20;11.13;;;7.30;99.90;;;;;;4880484;28;94206;-31
2023/12/09 05:33:26;;;;;;;23.35;12.95;;;7.30;99.90;;;;;;4880796;28;95609;-34
2023/12/09 05:35:52;;;;;;;26.63;13.23;;;7.40;99.90;;;;;;4880646;28;93631;-30
2023/12/09 05:38:17;;;;;;;22.40;11.27;;;7.30;99.90;;;;;;4880833;28;95777;-35
2023/12/09 05:40:43;;;;;;;22.95;11.40;;;7.30;99.90;;;;;;4880175;28;93731;-31
2023/12/09 05:43:08;;;;;;;24.33;11.02;;;7.30;99.90;;;;;;4880280;28;94872;-34
2023/12/09 05:45:34;;;;;;;22.45;11.85;;;7.30;99.90;;;;;;4880883;28;93905;-29
2023/12/09 05:48:00;;;;;;;24.88;11.63;;;7.30;99.90;;;;;;4880470;28;94730;-31
2023/12/09 05:50:25;;;;;;;29.45;11.68;;;7.30;99.90;;;;;;4881417;28;93650;-30
2023/12/09 05:52:51;;;;;;;19.17;10.65;;;7.30;99.90;;;;;;4880131;28;94343;-33
2023/12/09 05:55:17;;;;;;;28.02;12.45;;;7.30;99.90;;;;;;4880053;28;93998;-34
2023/12/09 05:57:43;;;;;;;32.67;13.27;;;7.30;99.90;;;;;;4879929;28;95615;-33
2023/12/09 06:00:10;;;;;;;33.03;12.60;;;7.30;99.90;;;;;;4880051;28;95164;-31
2023/12/09 06:02:36;;;;;;;21.25;11.63;;;7.30;99.90;;;;;;4881104;28;92708;-31
2023/12/09 06:05:02;;;;;;;27.83;11.52;;;7.30;99.90;;;;;;4879793;28;94444;-31
2023/12/09 06:07:28;;;;;;;21.90;10.77;;;7.30;99.90;;;;;;4880021;28;94959;-30
2023/12/09 06:09:54;;;;;;;31.48;13.20;;;7.30;99.90;;;;;;4880197;28;93475;-32
2023/12/09 06:12:20;;;;;;;29.02;11.30;;;7.30;99.90;;;;;;4880315;28;95161;-31
2023/12/09 06:14:46;;;;;;;29.63;11.20;;;7.30;99.90;;;;;;4880591;28;92743;-33
2023/12/09 06:17:11;;;;;;;22.10;11.98;;;7.30;99.90;;;;;;4879457;28;95276;-31
2023/12/09 06:19:37;;;;;;;29.52;10.30;;;7.30;99.90;;;;;;4879642;28;94636;-33
2023/12/09 06:22:02;;;;;;;31.55;10.63;;;7.30;99.90;;;;;;4873658;28;95484;-32
2023/12/09 06:24:28;;;;;;;28.50;10.57;;;7.30;99.90;;;;;;4868613;28;92960;-32
2023/12/09 06:26:54;;;;;;;20.10;10.13;;;7.20;99.90;;;;;;4871163;28;94639;-34
2023/12/09 06:29:19;;;;;;;19.73;11.90;;;7.20;99.90;;;;;;4872204;28;94401;-34
2023/12/09 06:31:45;;;;;;;17.58;10.80;;;7.20;99.90;;;;;;4879672;28;94844;-34
2023/12/09 06:34:10;;;;;;;16.38;8.35;;;7.20;99.90;;;;;;4879805;28;94613;-32
2023/12/09 06:36:36;;;;;;;16.73;9.45;;;7.20;99.90;;;;;;4880571;28;94702;-31
2023/12/09 06:39:02;;;;;;;15.45;9.57;;;7.20;99.90;;;;;;4880371;28;94320;-30
2023/12/09 06:41:27;;;;;;;19.58;10.52;;;7.20;99.90;;;;;;4880270;28;93969;-31
2023/12/09 06:43:53;;;;;;;14.45;8.65;;;7.20;99.90;;;;;;4879831;28;93308;-35
2023/12/09 06:46:18;;;;;;;29.10;9.45;;;7.20;99.90;;;;;;4879474;28;94757;-34
2023/12/09 06:48:45;;;;;;;16.65;7.78;;;7.20;99.90;;;;;;4880475;28;95504;-33
2023/12/09 06:51:14;;;;;;;20.48;10.50;;;7.20;99.90;;;;;;4881317;28;92174;-32
2023/12/09 06:53:40;;;;;;;20.25;9.65;;;7.10;99.90;;;;;;4879911;28;94845;-31
2023/12/09 06:56:06;;;;;;;22.65;10.43;;;7.20;99.90;;;;;;4880231;28;93489;-31
2023/12/09 06:58:32;;;;;;;23.55;9.93;;;7.20;99.90;;;;;;4879690;28;94715;-32
2023/12/09 07:00:57;;;;;;;16.13;8.27;;;7.20;99.90;;;;;;4880516;28;94979;-31
2023/12/09 07:03:23;;;;;;;21.75;8.63;;;7.20;99.90;;;;;;4880142;28;91582;-30
2023/12/09 07:05:49;;;;;;;17.95;9.23;;;7.20;99.90;;;;;;4879973;28;94568;-30
2023/12/09 07:08:14;;;;;;;30.25;10.57;;;7.20;99.90;;;;;;4879523;28;94506;-32
2023/12/09 07:10:46;;;;;;;16.63;10.15;;;7.10;99.90;;;;;;4879688;28;94215;-33
2023/12/09 07:13:12;;;;;;;14.25;7.07;;;7.10;99.90;;;;;;4879124;28;94540;-29
2023/12/09 07:15:37;;;;;;;21.77;8.35;;;7.10;99.90;;;;;;4880154;28;94761;-33
2023/12/09 07:18:04;;;;;;;13.75;7.43;;;7.10;99.90;;;;;;4879444;28;94454;-34
2023/12/09 07:20:30;;;;;;;23.17;9.27;;;7.10;99.90;;;;;;4880819;28;93214;-32
2023/12/09 07:22:55;;;;;;;14.38;7.65;;;7.00;99.90;;;;;;4879329;28;94929;-32
2023/12/09 07:25:23;;;;;;;15.02;8.45;;;7.00;99.90;;;;;;4880040;28;94746;-34
2023/12/09 07:27:49;;;;;;;10.80;7.30;;;7.00;99.90;;;;;;4879852;28;94553;-33
2023/12/09 07:30:14;;;;;;;18.90;9.65;;;7.00;99.90;;;;;;4879990;28;93700;-33
2023/12/09 07:35:42;;;;;;;16.73;6.93;;;7.00;99.90;;;;;;4802182;29;96373;-34
2023/12/09 07:38:08;;;;;;;22.15;8.55;;;7.00;99.90;;;;;;4800557;29;95972;-34
2023/12/09 07:40:34;;;;;;;12.05;7.15;;;6.90;99.90;;;;;;4804693;29;94742;-31
2023/12/09 07:42:59;;;;;;;10.02;7.28;;;7.00;99.90;;;;;;4804792;29;93963;-33
2023/12/09 07:45:25;;;;;;;13.25;6.47;;;7.00;99.90;;;;;;4804683;29;94868;-31
2023/12/09 07:47:50;;;;;;;12.25;8.07;;;7.00;99.90;;;;;;4800595;29;93387;-29
2023/12/09 07:50:17;;;;;;;24.20;9.18;;;7.00;99.90;;;;;;4802405;29;94527;-35
2023/12/09 07:52:43;;;;;;;9.07;5.60;;;7.00;99.90;;;;;;4802203;29;94176;-32
2023/12/09 07:55:08;;;;;;;10.90;6.25;;;6.90;99.90;;;;;;4802096;29;95500;-34
2023/12/09 07:57:34;;;;;;;10.57;4.35;;;7.00;99.90;;;;;;4801513;29;94976;-32
2023/12/09 08:00:00;;;;;;;17.38;8.32;;;6.90;99.90;;;;;;4803045;29;94579;-31
2023/12/09 08:02:26;;;;;;;11.00;5.43;;;6.90;99.90;;;;;;4804475;29;92252;-33
2023/12/09 08:04:51;;;;;;;12.38;6.95;;;6.90;99.90;;;;;;4803587;29;94750;-32
2023/12/09 08:07:17;;;;;;;18.15;5.72;;;6.80;99.90;;;;;;4803462;29;94701;-33
2023/12/09 08:09:42;;;;;;;12.88;4.35;;;6.80;99.90;;;;;;4804161;29;94470;-34
2023/12/09 08:12:08;;;;;;;11.88;4.75;;;6.70;99.90;;;;;;4803655;29;92784;-32
2023/12/09 08:14:34;;;;;;;17.85;5.93;;;6.70;99.90;;;;;;4803939;29;94184;-34
2023/12/09 08:16:59;;;;;;;20.77;5.75;;;6.70;99.90;;;;;;4804053;29;94861;-33
2023/12/09 08:19:25;;;;;;;21.42;5.50;;;6.70;99.90;;;;;;4818366;29;93388;-32
2023/12/09 08:21:50;;;;;;;14.15;5.93;;;6.70;99.90;;;;;;4803935;29;92122;-33
2023/12/09 08:24:16;;;;;;;13.15;4.90;;;6.70;99.90;;;;;;4803226;29;94915;-31
2023/12/09 08:26:42;;;;;;;8.68;5.20;;;6.70;99.90;;;;;;4804328;29;95528;-32
2023/12/09 08:29:11;;;;;;;8.45;5.13;;;6.60;99.90;;;;;;4804129;29;92449;-31
2023/12/09 08:31:37;;;;;;;8.00;4.00;;;6.70;99.90;;;;;;4804275;29;92201;-32
2023/12/09 08:34:04;;;;;;;10.55;5.05;;;6.70;99.90;;;;;;4802791;29;95045;-31
2023/12/09 08:36:30;;;;;;;11.88;5.22;;;6.70;99.90;;;;;;4803880;29;96443;-34
2023/12/09 08:38:55;;;;;;;15.20;5.65;;;6.70;99.90;;;;;;4803503;29;93446;-33
2023/12/09 08:41:21;;;;;;;5.57;3.25;;;6.70;99.90;;;;;;4805128;29;94261;-31
2023/12/09 08:43:48;;;;;;;10.13;3.90;;;6.70;99.90;;;;;;4803248;29;95146;-31
2023/12/09 08:46:14;;;;;;;10.48;5.80;;;6.70;99.90;;;;;;4803682;29;93816;-32
2023/12/09 08:48:39;;;;;;;25.55;5.50;;;6.70;99.90;;;;;;4804092;29;94263;-32
2023/12/09 08:51:05;;;;;;;7.13;4.28;;;6.70;99.90;;;;;;4803428;29;93044;-32
2023/12/09 08:53:30;;;;;;;11.65;4.40;;;6.70;99.90;;;;;;4802563;29;94753;-33
2023/12/09 08:55:56;;;;;;;7.10;3.58;;;6.80;99.90;;;;;;4803638;29;94568;-32
2023/12/09 08:58:22;;;;;;;12.23;4.45;;;6.80;99.90;;;;;;4803699;29;94891;-31
2023/12/09 09:00:48;;;;;;;13.45;5.72;;;6.80;99.90;;;;;;4803830;29;94047;-30
2023/12/09 09:03:13;;;;;;;11.82;4.30;;;6.80;99.90;;;;;;4804840;29;94295;-34
2023/12/09 09:05:39;;;;;;;12.00;4.07;;;6.90;99.90;;;;;;4807077;29;94850;-33
2023/12/09 09:08:05;;;;;;;6.93;4.35;;;6.90;99.90;;;;;;4806709;29;93752;-33
2023/12/09 09:10:30;;;;;;;13.35;3.53;;;6.90;99.90;;;;;;4807769;29;94397;-30
2023/12/09 09:12:56;;;;;;;14.85;5.15;;;6.90;99.90;;;;;;4805767;29;95986;-31
2023/12/09 09:15:21;;;;;;;8.20;4.10;;;7.00;99.90;;;;;;4807300;29;95084;-33
2023/12/09 09:17:47;;;;;;;11.70;4.05;;;7.00;99.90;;;;;;4806715;29;94036;-31
2023/12/09 09:20:13;;;;;;;11.15;3.78;;;7.00;99.90;;;;;;4806776;29;94157;-31
2023/12/09 09:22:39;;;;;;;13.70;3.58;;;7.10;99.90;;;;;;4806365;29;95909;-30
2023/12/09 09:25:05;;;;;;;4.88;3.90;;;7.10;99.90;;;;;;4806616;29;94644;-31
2023/12/09 09:27:30;;;;;;;6.90;4.25;;;7.10;99.90;;;;;;4806407;29;92320;-31
2023/12/09 09:29:56;;;;;;;5.82;2.90;;;7.20;99.90;;;;;;4807150;29;93460;-32
2023/12/09 09:32:22;;;;;;;6.35;4.20;;;7.30;99.90;;;;;;4806437;29;94807;-34
2023/12/09 09:34:47;;;;;;;9.13;3.83;;;7.30;99.90;;;;;;4806276;29;94027;-33
2023/12/09 09:37:14;;;;;;;11.05;3.65;;;7.30;99.90;;;;;;4805794;29;95485;-34
2023/12/09 09:39:40;;;;;;;12.02;5.32;;;7.40;99.90;;;;;;4806111;29;93706;-31
2023/12/09 09:42:36;;;;;;;7.03;3.45;;;7.40;99.90;;;;;;4805679;29;94647;-31
2023/12/09 09:45:20;;;;;;;13.43;4.75;;;7.50;99.90;;;;;;4806144;29;94462;-31
2023/12/09 09:47:50;;;;;;;12.88;4.03;;;7.50;99.90;;;;;;4807280;29;94324;-32
2023/12/09 09:50:22;;;;;;;5.90;3.83;;;7.60;99.90;;;;;;4805905;29;92197;-32
2023/12/09 09:52:48;;;;;;;8.88;3.80;;;7.50;99.90;;;;;;4806408;29;94806;-31
2023/12/09 09:55:18;;;;;;;10.07;4.10;;;7.50;99.90;;;;;;4806401;29;93592;-32
2023/12/09 09:57:44;;;;;;;7.75;3.33;;;7.60;99.90;;;;;;4806438;29;92178;-31
2023/12/09 10:00:14;;;;;;;8.57;3.95;;;7.50;99.90;;;;;;4805842;29;94815;-34
2023/12/09 10:02:44;;;;;;;8.68;4.10;;;7.50;99.90;;;;;;4804829;29;95313;-33
2023/12/09 10:05:11;;;;;;;8.82;4.65;;;7.50;99.90;;;;;;4805165;29;95091;-33
2023/12/09 10:07:37;;;;;;;8.68;4.13;;;7.50;99.90;;;;;;4805698;29;93190;-30
2023/12/09 10:10:03;;;;;;;10.93;4.03;;;7.60;99.90;;;;;;4805439;29;93805;-31
2023/12/09 10:12:33;;;;;;;6.85;3.25;;;7.50;99.90;;;;;;4805955;29;94555;-33
2023/12/09 10:15:00;;;;;;;7.18;4.32;;;7.60;99.90;;;;;;4804413;29;95136;-33
2023/12/09 10:17:27;;;;;;;11.00;5.47;;;7.50;99.90;;;;;;4805998;29;93175;-32
2023/12/09 10:19:54;;;;;;;6.25;3.30;;;7.50;99.90;;;;;;4806174;29;92549;-36
2023/12/09 10:22:20;;;;;;;11.27;3.63;;;7.60;99.90;;;;;;4806440;29;94492;-31
2023/12/09 10:24:50;;;;;;;9.35;3.70;;;7.60;99.90;;;;;;4805895;29;94983;-32
2023/12/09 10:27:20;;;;;;;12.32;3.53;;;7.70;99.90;;;;;;4805230;29;94044;-30
2023/12/09 10:29:46;;;;;;;13.43;6.72;;;7.70;99.90;;;;;;4805855;29;94386;-31
2023/12/09 10:32:12;;;;;;;5.28;3.53;;;7.70;99.90;;;;;;4805903;29;96404;-31
2023/12/09 10:34:39;;;;;;;11.98;5.57;;;7.80;99.90;;;;;;4805346;29;94839;-32
2023/12/09 10:37:12;;;;;;;9.35;3.60;;;7.80;99.90;;;;;;4805697;29;93402;-32
2023/12/09 10:39:43;;;;;;;12.95;4.22;;;7.90;99.90;;;;;;4805839;29;93216;-31
2023/12/09 10:42:09;;;;;;;7.43;3.00;;;7.90;99.90;;;;;;4804989;29;94893;-29
2023/12/09 10:44:34;;;;;;;8.77;3.58;;;7.90;99.90;;;;;;4805650;29;95240;-33
2023/12/09 10:47:00;;;;;;;7.50;4.05;;;7.90;99.90;;;;;;4805456;29;92549;-32
2023/12/09 10:49:26;;;;;;;8.43;4.15;;;7.90;99.90;;;;;;4805620;29;93446;-33
2023/12/09 10:51:51;;;;;;;7.45;3.65;;;7.90;99.90;;;;;;4803384;29;95528;-31
2023/12/09 10:54:17;;;;;;;6.13;3.35;;;7.90;99.90;;;;;;4805336;29;95679;-32
2023/12/09 10:56:43;;;;;;;5.72;3.00;;;7.90;99.90;;;;;;4805072;29;92090;-30
2023/12/09 10:59:09;;;;;;;4.88;3.95;;;7.90;99.90;;;;;;4805546;29;92182;-31
2023/12/09 11:01:35;;;;;;;7.05;4.30;;;7.90;99.90;;;;;;4805134;29;95890;-31
2023/12/09 11:04:03;;;;;;;6.78;2.88;;;7.90;99.90;;;;;;4805327;29;94429;-30
2023/12/09 11:06:36;;;;;;;7.35;3.55;;;7.90;99.90;;;;;;4805760;29;92167;-31
2023/12/09 11:09:05;;;;;;;8.73;3.67;;;7.90;99.90;;;;;;4805068;29;92442;-33
2023/12/09 11:11:31;;;;;;;7.50;4.18;;;8.00;99.90;;;;;;4805021;29;94415;-32
2023/12/09 11:13:58;;;;;;;8.07;4.05;;;8.00;99.90;;;;;;4805071;29;94259;-31
2023/12/09 11:16:27;;;;;;;4.55;4.10;;;8.00;99.90;;;;;;4804500;29;94655;-32
2023/12/09 11:18:58;;;;;;;8.55;3.80;;;8.00;99.90;;;;;;4805104;29;94248;-35
2023/12/09 11:21:31;;;;;;;4.88;3.10;;;8.00;99.90;;;;;;4804487;29;94253;-30
2023/12/09 11:23:58;;;;;;;4.65;3.45;;;8.00;99.90;;;;;;4804792;29;94561;-32
2023/12/09 11:26:31;;;;;;;8.57;3.55;;;8.00;99.90;;;;;;4805594;29;93759;-29
2023/12/09 11:29:08;;;;;;;5.68;2.70;;;8.00;99.90;;;;;;4803472;29;94560;-31
2023/12/09 11:31:38;;;;;;;5.57;3.05;;;8.00;99.90;;;;;;4804747;29;95595;-31
2023/12/09 11:34:12;;;;;;;7.10;3.88;;;8.00;99.90;;;;;;4804848;29;94556;-31
2023/12/09 11:36:38;;;;;;;10.02;4.93;;;8.10;99.90;;;;;;4804925;29;93477;-32
2023/12/09 11:39:06;;;;;;;11.27;4.45;;;8.10;99.90;;;;;;4804619;29;92255;-33
2023/12/09 11:41:33;;;;;;;5.65;3.28;;;8.10;99.90;;;;;;4804825;29;95516;-33
2023/12/09 11:44:01;;;;;;;5.18;2.53;;;8.10;99.90;;;;;;4803833;29;94895;-30
2023/12/09 11:46:28;;;;;;;4.93;3.27;;;8.10;99.90;;;;;;4804981;29;93640;-32
2023/12/09 11:48:55;;;;;;;13.10;3.42;;;8.10;99.90;;;;;;4804321;29;92697;-34
2023/12/09 11:51:21;;;;;;;4.70;3.73;;;8.20;99.90;;;;;;4805246;29;95073;-31
2023/12/09 11:53:58;;;;;;;10.07;4.10;;;8.10;99.90;;;;;;4804000;29;94611;-31
2023/12/09 11:56:24;;;;;;;6.95;3.85;;;8.20;99.90;;;;;;4804299;29;93008;-30
2023/12/09 11:58:50;;;;;;;4.88;2.47;;;8.10;99.90;;;;;;4804594;29;91990;-32
2023/12/09 12:01:20;;;;;;;3.80;3.50;;;8.10;99.90;;;;;;4804084;29;95833;-31
2023/12/09 12:03:49;;;;;;;12.45;3.80;;;8.10;99.90;;;;;;4804116;29;94283;-33
2023/12/09 12:06:19;;;;;;;7.70;3.20;;;8.10;99.90;;;;;;4803545;29;93297;-33
2023/12/09 12:08:49;;;;;;;2.83;2.42;;;8.10;99.90;;;;;;4804333;29;92143;-32
2023/12/09 12:11:16;;;;;;;5.15;2.92;;;8.10;99.90;;;;;;4803953;29;94879;-32
2023/12/09 12:13:42;;;;;;;10.38;4.07;;;8.10;99.90;;;;;;4804496;29;94904;-31
2023/12/09 12:16:08;;;;;;;6.82;4.32;;;8.10;99.90;;;;;;4804779;29;93812;-33
2023/12/09 12:18:34;;;;;;;10.05;4.10;;;8.10;99.90;;;;;;4803504;29;92897;-33
2023/12/09 12:21:00;;;;;;;5.55;2.88;;;8.00;99.90;;;;;;4803626;29;94220;-31
2023/12/09 12:23:26;;;;;;;2.88;2.63;;;8.00;99.90;;;;;;4805068;29;94543;-31
2023/12/09 12:25:55;;;;;;;6.35;2.33;;;8.00;99.90;;;;;;4804476;29;94519;-31
2023/12/09 12:28:24;;;;;;;6.18;2.88;;;8.00;99.90;;;;;;4804205;29;94598;-31
2023/12/09 12:30:55;;;;;;;6.25;3.08;;;8.10;99.90;;;;;;4802274;29;95611;-34
2023/12/09 12:33:24;;;;;;;6.57;3.47;;;8.10;99.90;;;;;;4803583;29;95406;-32
2023/12/09 12:35:51;;;;;;;6.90;3.05;;;8.10;99.90;;;;;;4804452;29;93708;-34
2023/12/09 12:38:18;;;;;;;9.52;3.55;;;8.20;99.90;;;;;;4805551;29;93277;-33
2023/12/09 12:40:43;;;;;;;6.97;2.80;;;8.10;99.90;;;;;;4807761;29;94759;-32
2023/12/09 12:43:09;;;;;;;9.55;4.55;;;8.10;99.90;;;;;;4806399;29;95362;-32